createdAt,value
2014-09-01T00:00:24.456Z,16.5
2014-09-01T00:01:29.145Z,16.5
2014-09-01T00:02:33.835Z,16.48
2014-09-01T00:03:38.524Z,16.45
2014-09-01T00:04:43.198Z,16.28
2014-09-01T00:05:48.184Z,16.49
2014-09-01T00:06:52.858Z,16.5
2014-09-01T00:07:57.845Z,16.32
2014-09-01T00:09:02.535Z,16.36
2014-09-01T00:10:07.209Z,16.38
2014-09-01T00:11:11.897Z,16.45
2014-09-01T00:12:16.885Z,16.52
2014-09-01T00:13:21.574Z,16.47
2014-09-01T00:14:26.545Z,16.46
2014-09-01T00:15:31.235Z,16.26
2014-09-01T00:16:36.221Z,16.51
2014-09-01T00:17:40.895Z,16.36
2014-09-01T00:18:45.584Z,16.45
2014-09-01T00:19:50.274Z,16.29
2014-09-01T00:20:55.245Z,16.35
2014-09-01T00:22:00.232Z,16.16
2014-09-01T00:23:04.906Z,16.14
2014-09-01T00:24:09.594Z,16.2
2014-09-01T00:25:14.285Z,16.24
2014-09-01T00:26:19.287Z,16.34
2014-09-01T00:27:23.975Z,16.23
2014-09-01T00:28:28.947Z,16.28
2014-09-01T00:29:33.637Z,16.38
2014-09-01T00:30:38.326Z,16.38
2014-09-01T00:31:43.297Z,16.62
2014-09-01T00:32:47.986Z,16.51
2014-09-01T00:33:52.676Z,16.44
2014-09-01T00:34:57.662Z,16.22
2014-09-01T00:36:02.337Z,16.29
2014-09-01T00:37:07.026Z,16.24
2014-09-01T00:38:11.731Z,16.38
2014-09-01T00:39:16.701Z,16.36
2014-09-01T00:40:21.392Z,16.38
2014-09-01T00:41:26.081Z,16.38
2014-09-01T00:42:30.754Z,16.47
2014-09-01T00:43:35.742Z,16.51
2014-09-01T00:44:40.416Z,16.43
2014-09-01T00:45:45.089Z,16.47
2014-09-01T00:46:49.779Z,16.35
2014-09-01T00:47:54.765Z,16.34
2014-09-01T00:48:59.439Z,16.4
2014-09-01T00:50:04.130Z,16.42
2014-09-01T00:51:08.803Z,16.39
2014-09-01T00:52:13.493Z,16.45
2014-09-01T00:53:18.167Z,16.43
2014-09-01T00:54:22.856Z,16.51
2014-09-01T00:55:27.529Z,16.22
2014-09-01T00:56:32.220Z,16.31
2014-09-01T00:57:36.894Z,16.29
2014-09-01T00:58:41.880Z,16.37
2014-09-01T00:59:46.554Z,16.38
2014-09-01T01:00:51.243Z,16.26
2014-09-01T01:01:55.917Z,16.35
2014-09-01T01:03:00.607Z,16.28
2014-09-01T01:04:05.281Z,16.33
2014-09-01T01:05:10.268Z,16.23
2014-09-01T01:06:14.942Z,16.13
2014-09-01T01:07:19.630Z,15.99
2014-09-01T01:08:24.320Z,15.98
2014-09-01T01:09:28.995Z,15.96
2014-09-01T01:10:33.980Z,16.17
2014-09-01T01:11:38.655Z,16.03
2014-09-01T01:12:43.345Z,16.01
2014-09-01T01:13:48.018Z,15.98
2014-09-01T01:14:52.707Z,16.09
2014-09-01T01:15:57.413Z,16.14
2014-09-01T01:17:01.415Z,15.96
2014-09-01T01:18:06.105Z,16.05
2014-09-01T01:19:10.778Z,15.98
2014-09-01T01:20:15.468Z,16.12
2014-09-01T01:21:20.142Z,16.06
2014-09-01T01:22:24.831Z,16.16
2014-09-01T01:23:29.505Z,16.24
2014-09-01T01:24:33.492Z,16.17
2014-09-01T01:25:38.182Z,16.1
2014-09-01T01:26:43.167Z,15.95
2014-09-01T01:27:47.841Z,15.98
2014-09-01T01:28:52.532Z,15.93
2014-09-01T01:29:57.206Z,16.06
2014-09-01T01:31:01.895Z,15.81
2014-09-01T01:32:06.569Z,16.1
2014-09-01T01:33:11.259Z,16.01
2014-09-01T01:34:15.932Z,15.78
2014-09-01T01:35:19.934Z,16.03
2014-09-01T01:36:24.608Z,15.93
2014-09-01T01:37:29.298Z,15.68
2014-09-01T01:38:33.972Z,15.64
2014-09-01T01:39:38.661Z,15.72
2014-09-01T01:40:43.633Z,15.84
2014-09-01T01:41:48.338Z,15.93
2014-09-01T01:42:53.012Z,15.78
2014-09-01T01:43:57.701Z,15.58
2014-09-01T01:45:01.688Z,15.7
2014-09-01T01:46:06.376Z,15.7
2014-09-01T01:47:11.050Z,15.74
2014-09-01T01:48:15.741Z,15.95
2014-09-01T01:49:20.415Z,15.82
2014-09-01T01:50:25.104Z,15.81
2014-09-01T01:51:29.778Z,15.91
2014-09-01T01:52:34.467Z,15.97
2014-09-01T01:53:39.141Z,16.09
2014-09-01T01:54:43.831Z,15.94
2014-09-01T01:55:48.505Z,15.98
2014-09-01T01:56:53.194Z,15.94
2014-09-01T01:57:57.869Z,16.07
2014-09-01T01:59:02.543Z,15.98
2014-09-01T02:00:07.231Z,16.22
2014-09-01T02:01:11.922Z,16.1
2014-09-01T02:02:16.596Z,15.81
2014-09-01T02:03:21.301Z,15.77
2014-09-01T02:04:25.975Z,15.84
2014-09-01T02:05:30.664Z,15.96
2014-09-01T02:06:35.338Z,15.93
2014-09-01T02:07:39.340Z,15.76
2014-09-01T02:08:44.015Z,15.6
2014-09-01T02:09:48.704Z,15.5
2014-09-01T02:10:53.377Z,15.56
2014-09-01T02:11:58.067Z,15.7
2014-09-01T02:13:02.742Z,15.48
2014-09-01T02:14:07.431Z,15.68
2014-09-01T02:15:12.104Z,15.76
2014-09-01T02:16:16.795Z,15.63
2014-09-01T02:17:21.765Z,15.69
2014-09-01T02:18:26.454Z,15.58
2014-09-01T02:19:31.129Z,15.5
2014-09-01T02:20:35.818Z,15.56
2014-09-01T02:21:40.492Z,15.53
2014-09-01T02:22:45.183Z,15.56
2014-09-01T02:23:50.152Z,15.41
2014-09-01T02:24:54.826Z,15.51
2014-09-01T02:25:59.516Z,15.48
2014-09-01T02:27:04.190Z,15.6
2014-09-01T02:28:08.879Z,15.66
2014-09-01T02:29:13.570Z,15.53
2014-09-01T02:30:18.244Z,15.51
2014-09-01T02:31:22.933Z,15.52
2014-09-01T02:32:27.607Z,15.61
2014-09-01T02:33:32.592Z,15.54
2014-09-01T02:34:37.266Z,15.49
2014-09-01T02:35:41.972Z,15.47
2014-09-01T02:36:46.646Z,15.46
2014-09-01T02:37:51.633Z,15.68
2014-09-01T02:38:56.306Z,15.5
2014-09-01T02:40:01.293Z,15.58
2014-09-01T02:41:05.967Z,15.42
2014-09-01T02:42:10.656Z,15.4
2014-09-01T02:43:15.331Z,15.44
2014-09-01T02:44:20.066Z,15.5
2014-09-01T02:45:24.756Z,15.5
2014-09-01T02:46:29.431Z,15.51
2014-09-01T02:47:34.120Z,15.58
2014-09-01T02:48:38.793Z,15.81
2014-09-01T02:49:42.795Z,15.63
2014-09-01T02:50:47.470Z,15.47
2014-09-01T02:51:52.160Z,15.44
2014-09-01T02:52:57.146Z,15.42
2014-09-01T02:54:01.820Z,15.29
2014-09-01T02:55:06.509Z,15.56
2014-09-01T02:56:11.183Z,15.55
2014-09-01T02:57:15.185Z,15.27
2014-09-01T02:58:19.860Z,15.4
2014-09-01T02:59:24.550Z,15.25
2014-09-01T03:00:29.222Z,15.36
2014-09-01T03:01:33.912Z,15.38
2014-09-01T03:02:38.587Z,15.47
2014-09-01T03:03:43.261Z,15.34
2014-09-01T03:04:47.949Z,15.41
2014-09-01T03:05:52.937Z,15.36
2014-09-01T03:06:57.610Z,15.42
2014-09-01T03:08:02.300Z,15.36
2014-09-01T03:09:07.271Z,15.21
2014-09-01T03:10:11.960Z,15.42
2014-09-01T03:11:15.962Z,15.36
2014-09-01T03:12:20.637Z,15.22
2014-09-01T03:13:25.623Z,15.28
2014-09-01T03:14:30.296Z,15.38
2014-09-01T03:15:34.987Z,15.5
2014-09-01T03:16:39.958Z,15.25
2014-09-01T03:17:44.647Z,15.22
2014-09-01T03:18:49.321Z,15.32
2014-09-01T03:19:54.010Z,15.31
2014-09-01T03:20:58.980Z,15.43
2014-09-01T03:22:03.671Z,15.43
2014-09-01T03:23:08.641Z,15.44
2014-09-01T03:24:13.331Z,15.58
2014-09-01T03:25:18.302Z,15.58
2014-09-01T03:26:23.288Z,15.56
2014-09-01T03:27:27.963Z,15.58
2014-09-01T03:28:32.652Z,15.63
2014-09-01T03:29:36.639Z,15.58
2014-09-01T03:30:41.360Z,15.64
2014-09-01T03:31:46.345Z,15.53
2014-09-01T03:32:51.020Z,15.38
2014-09-01T03:33:55.694Z,15.3
2014-09-01T03:35:00.680Z,15.32
2014-09-01T03:36:05.354Z,15.52
2014-09-01T03:37:10.043Z,15.53
2014-09-01T03:38:15.030Z,15.33
2014-09-01T03:39:19.704Z,15.52
2014-09-01T03:40:24.393Z,15.53
2014-09-01T03:41:29.068Z,15.42
2014-09-01T03:42:33.742Z,15.32
2014-09-01T03:43:38.430Z,15.5
2014-09-01T03:44:43.104Z,15.5
2014-09-01T03:45:47.794Z,15.5
2014-09-01T03:46:52.469Z,15.58
2014-09-01T03:47:57.158Z,15.65
2014-09-01T03:49:02.129Z,15.82
2014-09-01T03:50:07.115Z,15.72
2014-09-01T03:51:12.086Z,15.8
2014-09-01T03:52:17.072Z,15.8
2014-09-01T03:53:22.043Z,15.82
2014-09-01T03:54:27.030Z,15.75
2014-09-01T03:55:32.000Z,15.85
2014-09-01T03:56:36.690Z,15.82
2014-09-01T03:57:41.364Z,15.7
2014-09-01T03:58:46.053Z,15.68
2014-09-01T03:59:50.728Z,15.7
2014-09-01T04:00:55.418Z,15.58
2014-09-01T04:01:59.420Z,15.64
2014-09-01T04:03:04.092Z,15.76
2014-09-01T04:04:08.782Z,15.83
2014-09-01T04:05:13.754Z,15.82
2014-09-01T04:06:18.443Z,15.65
2014-09-01T04:07:23.117Z,15.76
2014-09-01T04:08:27.807Z,15.69
2014-09-01T04:09:32.480Z,15.77
2014-09-01T04:10:37.154Z,15.71
2014-09-01T04:11:41.844Z,15.73
2014-09-01T04:12:46.815Z,15.68
2014-09-01T04:13:51.504Z,15.66
2014-09-01T04:14:56.179Z,15.72
2014-09-01T04:16:00.868Z,15.79
2014-09-01T04:17:05.838Z,15.74
2014-09-01T04:18:10.529Z,15.94
2014-09-01T04:19:15.203Z,15.75
2014-09-01T04:20:20.189Z,15.71
2014-09-01T04:21:24.878Z,15.75
2014-09-01T04:22:29.552Z,15.73
2014-09-01T04:23:34.242Z,15.95
2014-09-01T04:24:39.213Z,15.86
2014-09-01T04:25:43.511Z,15.82
2014-09-01T04:26:48.498Z,15.8
2014-09-01T04:27:53.484Z,15.91
2014-09-01T04:28:58.159Z,15.91
2014-09-01T04:30:02.848Z,15.78
2014-09-01T04:31:07.538Z,15.82
2014-09-01T04:32:12.212Z,15.91
2014-09-01T04:33:16.901Z,16.02
2014-09-01T04:34:21.574Z,15.97
2014-09-01T04:35:26.265Z,15.84
2014-09-01T04:36:31.236Z,15.79
2014-09-01T04:37:36.222Z,15.91
2014-09-01T04:38:40.911Z,15.99
2014-09-01T04:39:45.585Z,15.75
2014-09-01T04:40:50.275Z,15.7
2014-09-01T04:41:54.949Z,15.73
2014-09-01T04:42:58.951Z,15.64
2014-09-01T04:44:03.625Z,15.68
2014-09-01T04:45:08.315Z,15.62
2014-09-01T04:46:13.005Z,15.71
2014-09-01T04:47:17.677Z,15.86
2014-09-01T04:48:22.367Z,15.84
2014-09-01T04:49:27.042Z,15.98
2014-09-01T04:50:31.730Z,15.86
2014-09-01T04:51:36.404Z,15.91
2014-09-01T04:52:41.095Z,15.7
2014-09-01T04:53:45.769Z,15.73
2014-09-01T04:54:50.489Z,15.83
2014-09-01T04:55:55.179Z,15.72
2014-09-01T04:56:59.853Z,15.81
2014-09-01T04:58:04.840Z,15.86
2014-09-01T04:59:09.826Z,15.94
2014-09-01T05:00:14.499Z,15.84
2014-09-01T05:01:19.173Z,15.56
2014-09-01T05:02:23.864Z,15.74
2014-09-01T05:03:28.553Z,15.74
2014-09-01T05:04:33.227Z,15.8
2014-09-01T05:05:37.917Z,15.77
2014-09-01T05:06:42.590Z,15.54
2014-09-01T05:07:47.592Z,15.6
2014-09-01T05:08:52.282Z,15.78
2014-09-01T05:09:57.253Z,15.68
2014-09-01T05:11:01.942Z,15.68
2014-09-01T05:12:06.929Z,15.77
2014-09-01T05:13:11.899Z,15.65
2014-09-01T05:14:16.590Z,15.7
2014-09-01T05:15:21.575Z,15.56
2014-09-01T05:16:26.266Z,15.65
2014-09-01T05:17:30.940Z,15.61
2014-09-01T05:18:35.629Z,15.45
2014-09-01T05:19:40.319Z,15.6
2014-09-01T05:20:45.008Z,15.6
2014-09-01T05:21:49.698Z,15.73
2014-09-01T05:22:54.668Z,15.68
2014-09-01T05:23:59.655Z,15.74
2014-09-01T05:25:04.344Z,15.71
2014-09-01T05:26:09.019Z,15.67
2014-09-01T05:27:14.004Z,15.64
2014-09-01T05:28:18.709Z,15.73
2014-09-01T05:29:23.726Z,15.62
2014-09-01T05:30:28.460Z,15.6
2014-09-01T05:31:33.197Z,15.74
2014-09-01T05:32:38.212Z,15.75
2014-09-01T05:33:43.224Z,15.77
2014-09-01T05:34:47.929Z,15.76
2014-09-01T05:35:52.635Z,16.04
2014-09-01T05:36:56.637Z,15.82
2014-09-01T05:38:01.343Z,15.59
2014-09-01T05:39:06.336Z,15.62
2014-09-01T05:40:11.031Z,15.82
2014-09-01T05:41:15.726Z,15.82
2014-09-01T05:42:20.406Z,15.77
2014-09-01T05:43:25.099Z,15.79
2014-09-01T05:44:29.775Z,15.83
2014-09-01T05:45:34.468Z,15.76
2014-09-01T05:46:39.455Z,15.96
2014-09-01T05:47:44.148Z,16.01
2014-09-01T05:48:48.838Z,16.04
2014-09-01T05:49:53.513Z,16.07
2014-09-01T05:50:58.204Z,16.08
2014-09-01T05:52:03.190Z,16.03
2014-09-01T05:53:07.866Z,16.15
2014-09-01T05:54:12.852Z,16
2014-09-01T05:55:17.839Z,16.03
2014-09-01T05:56:22.513Z,16.09
2014-09-01T05:57:27.204Z,15.92
2014-09-01T05:58:32.189Z,15.94
2014-09-01T05:59:36.879Z,15.92
2014-09-01T06:00:40.865Z,15.88
2014-09-01T06:01:45.556Z,16.02
2014-09-01T06:02:50.245Z,16.06
2014-09-01T06:03:54.919Z,16
2014-09-01T06:04:59.609Z,16.18
2014-09-01T06:06:04.579Z,16.18
2014-09-01T06:07:09.269Z,16.3
2014-09-01T06:08:13.958Z,16.38
2014-09-01T06:09:18.632Z,16.44
2014-09-01T06:10:23.323Z,16.61
2014-09-01T06:11:28.028Z,16.83
2014-09-01T06:12:32.716Z,16.84
2014-09-01T06:13:37.406Z,17.02
2014-09-01T06:14:42.378Z,17.02
2014-09-01T06:15:47.364Z,17.03
2014-09-01T06:16:51.366Z,16.84
2014-09-01T06:17:56.055Z,16.57
2014-09-01T06:19:00.729Z,16.55
2014-09-01T06:20:05.419Z,16.53
2014-09-01T06:21:10.108Z,16.64
2014-09-01T06:22:14.782Z,16.94
2014-09-01T06:23:19.472Z,16.96
2014-09-01T06:24:24.161Z,16.79
2014-09-01T06:25:28.852Z,16.84
2014-09-01T06:26:33.525Z,16.94
2014-09-01T06:27:38.512Z,16.83
2014-09-01T06:28:43.186Z,16.7
2014-09-01T06:29:47.874Z,16.87
2014-09-01T06:30:52.862Z,17.1
2014-09-01T06:31:57.536Z,17.12
2014-09-01T06:33:02.522Z,17.07
2014-09-01T06:34:07.196Z,16.88
2014-09-01T06:35:11.885Z,17.08
2014-09-01T06:36:16.559Z,16.92
2014-09-01T06:37:21.249Z,16.43
2014-09-01T06:38:26.219Z,16.23
2014-09-01T06:39:30.926Z,16.37
2014-09-01T06:40:35.598Z,16.61
2014-09-01T06:41:40.586Z,16.68
2014-09-01T06:42:45.260Z,16.75
2014-09-01T06:43:49.949Z,16.64
2014-09-01T06:44:54.623Z,16.52
2014-09-01T06:45:59.313Z,16.34
2014-09-01T06:47:04.002Z,16.37
2014-09-01T06:48:08.973Z,16.32
2014-09-01T06:49:13.662Z,16.38
2014-09-01T06:50:18.336Z,16.57
2014-09-01T06:51:23.026Z,16.6
2014-09-01T06:52:27.996Z,16.43
2014-09-01T06:53:32.687Z,16.3
2014-09-01T06:54:37.376Z,16.54
2014-09-01T06:55:42.049Z,16.78
2014-09-01T06:56:46.740Z,16.59
2014-09-01T06:57:51.414Z,16.59
2014-09-01T06:58:56.400Z,16.5
2014-09-01T07:00:01.074Z,16.6
2014-09-01T07:01:06.059Z,16.35
2014-09-01T07:02:10.749Z,16.06
2014-09-01T07:03:15.424Z,16.38
2014-09-01T07:04:20.410Z,16.48
2014-09-01T07:05:25.381Z,16.54
2014-09-01T07:06:30.367Z,16.65
2014-09-01T07:07:35.042Z,16.62
2014-09-01T07:08:39.731Z,16.76
2014-09-01T07:09:44.421Z,16.64
2014-09-01T07:10:49.095Z,16.92
2014-09-01T07:11:53.800Z,16.91
2014-09-01T07:12:58.474Z,17.04
2014-09-01T07:14:03.475Z,17.01
2014-09-01T07:15:08.150Z,17.07
2014-09-01T07:16:12.839Z,17.04
2014-09-01T07:17:17.512Z,16.96
2014-09-01T07:18:22.203Z,17
2014-09-01T07:19:27.173Z,16.81
2014-09-01T07:20:32.160Z,16.82
2014-09-01T07:21:37.131Z,17.02
2014-09-01T07:22:41.821Z,17.05
2014-09-01T07:23:46.511Z,16.99
2014-09-01T07:24:51.183Z,16.99
2014-09-01T07:25:56.170Z,16.72
2014-09-01T07:27:00.845Z,16.8
2014-09-01T07:28:05.534Z,16.91
2014-09-01T07:29:10.208Z,16.84
2014-09-01T07:30:14.898Z,16.7
2014-09-01T07:31:19.571Z,16.49
2014-09-01T07:32:24.261Z,16.52
2014-09-01T07:33:28.950Z,16.7
2014-09-01T07:34:33.624Z,16.52
2014-09-01T07:35:38.314Z,16.58
2014-09-01T07:36:43.285Z,16.57
2014-09-01T07:37:47.975Z,16.74
2014-09-01T07:38:52.696Z,16.73
2014-09-01T07:39:57.384Z,16.42
2014-09-01T07:41:02.058Z,16.45
2014-09-01T07:42:07.045Z,16.66
2014-09-01T07:43:12.031Z,16.62
2014-09-01T07:44:16.706Z,16.52
2014-09-01T07:45:21.691Z,16.66
2014-09-01T07:46:26.382Z,16.71
2014-09-01T07:47:31.056Z,16.85
2014-09-01T07:48:35.745Z,16.94
2014-09-01T07:49:40.419Z,17.12
2014-09-01T07:50:45.108Z,16.95
2014-09-01T07:51:49.799Z,16.88
2014-09-01T07:52:54.503Z,16.88
2014-09-01T07:53:59.178Z,16.84
2014-09-01T07:55:04.163Z,17.02
2014-09-01T07:56:08.884Z,17.2
2014-09-01T07:57:13.559Z,17.13
2014-09-01T07:58:18.545Z,17.1
2014-09-01T07:59:23.218Z,17.28
2014-09-01T08:00:27.909Z,17.14
2014-09-01T08:01:32.598Z,17.18
2014-09-01T08:02:37.569Z,17.07
2014-09-01T08:03:42.555Z,17.04
2014-09-01T08:04:47.527Z,16.94
2014-09-01T08:05:52.216Z,16.99
2014-09-01T08:06:57.186Z,17.01
2014-09-01T08:08:02.173Z,17.1
2014-09-01T08:09:06.847Z,16.98
2014-09-01T08:10:11.834Z,16.89
2014-09-01T08:11:16.523Z,17.02
2014-09-01T08:12:21.493Z,16.93
2014-09-01T08:13:26.184Z,16.98
2014-09-01T08:14:30.858Z,17.08
2014-09-01T08:15:35.547Z,17.09
2014-09-01T08:16:40.221Z,17.12
2014-09-01T08:17:44.910Z,17.08
2014-09-01T08:18:49.584Z,17.14
2014-09-01T08:19:54.274Z,17.08
2014-09-01T08:20:59.260Z,17.31
2014-09-01T08:22:03.935Z,17.26
2014-09-01T08:23:08.624Z,17.26
2014-09-01T08:24:13.297Z,17.32
2014-09-01T08:25:18.285Z,17.2
2014-09-01T08:26:22.959Z,16.9
2014-09-01T08:27:27.945Z,17.16
2014-09-01T08:28:32.635Z,17.14
2014-09-01T08:29:37.324Z,17.2
2014-09-01T08:30:42.295Z,17.32
2014-09-01T08:31:46.984Z,17.34
2014-09-01T08:32:51.658Z,17.34
2014-09-01T08:33:56.645Z,17.28
2014-09-01T08:35:01.318Z,17.38
2014-09-01T08:36:06.009Z,17.4
2014-09-01T08:37:10.697Z,17.26
2014-09-01T08:38:15.371Z,17.28
2014-09-01T08:39:20.358Z,17.44
2014-09-01T08:40:25.032Z,17.38
2014-09-01T08:41:29.722Z,17.3
2014-09-01T08:42:34.707Z,17.4
2014-09-01T08:43:39.381Z,17.36
2014-09-01T08:44:44.087Z,17.43
2014-09-01T08:45:48.777Z,17.24
2014-09-01T08:46:53.451Z,17.25
2014-09-01T08:47:58.140Z,17.17
2014-09-01T08:49:02.814Z,17.19
2014-09-01T08:50:07.785Z,17.47
2014-09-01T08:51:12.756Z,17.27
2014-09-01T08:52:17.415Z,17.32
2014-09-01T08:53:22.089Z,17.26
2014-09-01T08:54:27.074Z,17.24
2014-09-01T08:55:31.765Z,17.08
2014-09-01T08:56:36.439Z,17.1
2014-09-01T08:57:41.144Z,17.14
2014-09-01T08:58:45.818Z,17.28
2014-09-01T08:59:50.491Z,17.41
2014-09-01T09:00:55.181Z,17.24
2014-09-01T09:01:59.870Z,17.28
2014-09-01T09:03:04.544Z,17.36
2014-09-01T09:04:09.234Z,17.34
2014-09-01T09:05:13.908Z,17.2
2014-09-01T09:06:18.597Z,17.27
2014-09-01T09:07:23.272Z,17.37
2014-09-01T09:08:27.274Z,17.32
2014-09-01T09:09:32.260Z,17.41
2014-09-01T09:10:36.933Z,17.35
2014-09-01T09:11:41.624Z,17.33
2014-09-01T09:12:46.298Z,17.11
2014-09-01T09:13:50.986Z,17.11
2014-09-01T09:14:55.661Z,17.24
2014-09-01T09:16:00.351Z,17.2
2014-09-01T09:17:05.040Z,17.24
2014-09-01T09:18:09.714Z,17.14
2014-09-01T09:19:14.403Z,17.02
2014-09-01T09:20:19.077Z,17.18
2014-09-01T09:21:23.767Z,17.11
2014-09-01T09:22:28.441Z,16.88
2014-09-01T09:23:33.130Z,17.04
2014-09-01T09:24:37.820Z,16.96
2014-09-01T09:25:42.494Z,16.96
2014-09-01T09:26:47.183Z,16.94
2014-09-01T09:27:51.858Z,16.92
2014-09-01T09:28:56.843Z,17.04
2014-09-01T09:30:01.831Z,17.1
2014-09-01T09:31:06.801Z,17.13
2014-09-01T09:32:11.491Z,17.16
2014-09-01T09:33:16.165Z,17.3
2014-09-01T09:34:20.854Z,17.36
2014-09-01T09:35:25.826Z,17.14
2014-09-01T09:36:30.828Z,17.21
2014-09-01T09:37:35.517Z,17.3
2014-09-01T09:38:40.190Z,17.45
2014-09-01T09:39:44.881Z,17.44
2014-09-01T09:40:49.570Z,17.42
2014-09-01T09:41:54.243Z,17.56
2014-09-01T09:42:58.933Z,17.58
2014-09-01T09:44:03.608Z,17.64
2014-09-01T09:45:08.296Z,17.4
2014-09-01T09:46:12.987Z,17.36
2014-09-01T09:47:17.675Z,17.12
2014-09-01T09:48:22.350Z,17.22
2014-09-01T09:49:27.040Z,17.43
2014-09-01T09:50:32.026Z,17.54
2014-09-01T09:51:36.715Z,17.55
2014-09-01T09:52:41.389Z,17.65
2014-09-01T09:53:46.080Z,17.34
2014-09-01T09:54:50.768Z,17.54
2014-09-01T09:55:55.442Z,17.38
2014-09-01T09:57:00.429Z,17.31
2014-09-01T09:58:05.118Z,17.36
2014-09-01T09:59:09.793Z,17.38
2014-09-01T10:00:14.482Z,17.38
2014-09-01T10:01:19.156Z,17.28
2014-09-01T10:02:23.158Z,17.34
2014-09-01T10:03:27.848Z,17.4
2014-09-01T10:04:32.522Z,17.36
2014-09-01T10:05:37.211Z,17.1
2014-09-01T10:06:41.886Z,17.32
2014-09-01T10:07:46.575Z,17.22
2014-09-01T10:08:51.265Z,17.23
2014-09-01T10:09:55.969Z,16.95
2014-09-01T10:11:00.674Z,16.92
2014-09-01T10:12:05.662Z,16.87
2014-09-01T10:13:10.336Z,16.91
2014-09-01T10:14:15.025Z,17.08
2014-09-01T10:15:19.715Z,16.93
2014-09-01T10:16:24.404Z,16.96
2014-09-01T10:17:29.078Z,17.05
2014-09-01T10:18:33.767Z,17.12
2014-09-01T10:19:38.457Z,17
2014-09-01T10:20:43.131Z,17.18
2014-09-01T10:21:47.820Z,17.13
2014-09-01T10:22:52.792Z,17.04
2014-09-01T10:23:57.481Z,17.02
2014-09-01T10:25:02.170Z,17.01
2014-09-01T10:26:06.845Z,16.97
2014-09-01T10:27:11.534Z,16.97
2014-09-01T10:28:16.207Z,16.96
2014-09-01T10:29:21.195Z,17.22
2014-09-01T10:30:25.883Z,17.12
2014-09-01T10:31:30.558Z,17.26
2014-09-01T10:32:35.248Z,17.27
2014-09-01T10:33:40.234Z,17.2
2014-09-01T10:34:44.923Z,17.24
2014-09-01T10:35:49.613Z,17.42
2014-09-01T10:36:54.302Z,17.46
2014-09-01T10:37:58.993Z,17.45
2014-09-01T10:39:03.681Z,17.31
2014-09-01T10:40:08.652Z,17.35
2014-09-01T10:41:13.654Z,17.44
2014-09-01T10:42:18.345Z,17.34
2014-09-01T10:43:23.330Z,17.6
2014-09-01T10:44:28.302Z,17.74
2014-09-01T10:45:32.990Z,17.72
2014-09-01T10:46:37.978Z,17.72
2014-09-01T10:47:42.667Z,17.72
2014-09-01T10:48:47.341Z,17.8
2014-09-01T10:49:52.031Z,17.8
2014-09-01T10:50:56.721Z,17.97
2014-09-01T10:52:01.706Z,17.9
2014-09-01T10:53:06.380Z,18.03
2014-09-01T10:54:11.071Z,18
2014-09-01T10:55:15.759Z,18.04
2014-09-01T10:56:20.747Z,18.13
2014-09-01T10:57:25.420Z,18.1
2014-09-01T10:58:30.110Z,18
2014-09-01T10:59:34.784Z,18.2
2014-09-01T11:00:39.473Z,18.22
2014-09-01T11:01:44.460Z,18.23
2014-09-01T11:02:49.149Z,18.3
2014-09-01T11:03:53.823Z,18.4
2014-09-01T11:04:58.513Z,18.5
2014-09-01T11:06:03.187Z,18.7
2014-09-01T11:07:07.877Z,18.74
2014-09-01T11:08:12.567Z,18.95
2014-09-01T11:09:17.239Z,18.71
2014-09-01T11:10:21.930Z,18.86
2014-09-01T11:11:26.618Z,18.9
2014-09-01T11:12:31.606Z,19.07
2014-09-01T11:13:36.295Z,19.25
2014-09-01T11:14:40.968Z,19.31
2014-09-01T11:15:45.673Z,19.33
2014-09-01T11:16:50.363Z,19.34
2014-09-01T11:17:55.038Z,19.32
2014-09-01T11:19:00.024Z,19.47
2014-09-01T11:20:04.714Z,19.7
2014-09-01T11:21:09.404Z,19.67
2014-09-01T11:22:14.093Z,19.74
2014-09-01T11:23:18.766Z,19.82
2014-09-01T11:24:23.754Z,19.76
2014-09-01T11:25:28.442Z,19.73
2014-09-01T11:26:33.116Z,19.88
2014-09-01T11:27:37.807Z,19.69
2014-09-01T11:28:42.481Z,18.65
2014-09-01T11:29:47.170Z,18.9
2014-09-01T11:30:52.141Z,19.25
2014-09-01T11:31:56.829Z,19.45
2014-09-01T11:33:01.503Z,19.85
2014-09-01T11:34:06.491Z,19.76
2014-09-01T11:35:11.164Z,19.93
2014-09-01T11:36:15.854Z,19.86
2014-09-01T11:37:20.825Z,19.96
2014-09-01T11:38:25.514Z,20.1
2014-09-01T11:39:30.188Z,20.33
2014-09-01T11:40:34.878Z,20.14
2014-09-01T11:41:39.567Z,20.05
2014-09-01T11:42:44.241Z,20.04
2014-09-01T11:43:49.227Z,20.02
2014-09-01T11:44:53.917Z,20.18
2014-09-01T11:45:58.592Z,20.23
2014-09-01T11:47:03.280Z,20.22
2014-09-01T11:48:08.252Z,20.42
2014-09-01T11:49:13.238Z,20.2
2014-09-01T11:50:17.928Z,20.34
2014-09-01T11:51:22.602Z,20.13
2014-09-01T11:52:27.291Z,20.05
2014-09-01T11:53:32.279Z,20.14
2014-09-01T11:54:36.951Z,20.34
2014-09-01T11:55:41.642Z,20.32
2014-09-01T11:56:46.316Z,20.37
2014-09-01T11:57:51.004Z,20.4
2014-09-01T11:58:55.695Z,20.38
2014-09-01T12:00:00.369Z,20.39
2014-09-01T12:01:05.355Z,20.18
2014-09-01T12:02:10.045Z,20.13
2014-09-01T12:03:14.718Z,20.23
2014-09-01T12:04:19.408Z,20.18
2014-09-01T12:05:24.097Z,20.25
2014-09-01T12:06:28.771Z,20.17
2014-09-01T12:07:33.461Z,20.08
2014-09-01T12:08:38.135Z,20.03
2014-09-01T12:09:42.824Z,20.11
2014-09-01T12:10:47.811Z,20.14
2014-09-01T12:11:52.501Z,20.16
2014-09-01T12:12:57.472Z,20.08
2014-09-01T12:14:02.176Z,20.29
2014-09-01T12:15:06.851Z,20.03
2014-09-01T12:16:11.539Z,19.96
2014-09-01T12:17:16.527Z,20.06
2014-09-01T12:18:21.201Z,19.9
2014-09-01T12:19:26.187Z,19.85
2014-09-01T12:20:30.876Z,20.02
2014-09-01T12:21:35.847Z,20.04
2014-09-01T12:22:40.537Z,19.81
2014-09-01T12:23:45.211Z,19.83
2014-09-01T12:24:49.901Z,20.02
2014-09-01T12:25:54.886Z,20.11
2014-09-01T12:26:59.857Z,20.05
2014-09-01T12:28:04.548Z,19.96
2014-09-01T12:29:09.236Z,19.95
2014-09-01T12:30:13.941Z,19.93
2014-09-01T12:31:18.929Z,20.04
2014-09-01T12:32:22.915Z,20.08
2014-09-01T12:33:27.605Z,20.05
2014-09-01T12:34:32.294Z,20.24
2014-09-01T12:35:37.280Z,20.34
2014-09-01T12:36:41.954Z,20.13
2014-09-01T12:37:46.644Z,20.15
2014-09-01T12:38:51.333Z,20.2
2014-09-01T12:39:56.007Z,20.16
2014-09-01T12:41:00.697Z,20.04
2014-09-01T12:42:05.684Z,20.04
2014-09-01T12:43:10.374Z,20.06
2014-09-01T12:44:15.046Z,19.92
2014-09-01T12:45:19.737Z,19.84
2014-09-01T12:46:24.411Z,19.68
2014-09-01T12:47:29.100Z,19.74
2014-09-01T12:48:33.789Z,19.7
2014-09-01T12:49:38.761Z,19.75
2014-09-01T12:50:43.747Z,19.6
2014-09-01T12:51:48.421Z,19.56
2014-09-01T12:52:53.110Z,19.52
2014-09-01T12:53:57.800Z,19.51
2014-09-01T12:55:02.771Z,19.75
2014-09-01T12:56:07.461Z,19.56
2014-09-01T12:57:12.135Z,19.44
2014-09-01T12:58:16.823Z,19.42
2014-09-01T12:59:21.513Z,19.5
2014-09-01T13:00:26.485Z,19.23
2014-09-01T13:01:31.471Z,19.15
2014-09-01T13:02:36.161Z,19.13
2014-09-01T13:03:40.834Z,18.98
2014-09-01T13:04:45.524Z,19
2014-09-01T13:05:50.198Z,19.02
2014-09-01T13:06:55.184Z,19.12
2014-09-01T13:07:59.875Z,19.07
2014-09-01T13:09:04.548Z,18.92
2014-09-01T13:10:09.535Z,19.15
2014-09-01T13:11:14.224Z,19.19
2014-09-01T13:12:19.492Z,19
2014-09-01T13:13:24.182Z,18.94
2014-09-01T13:14:28.854Z,18.88
2014-09-01T13:15:33.842Z,18.88
2014-09-01T13:16:38.516Z,18.97
2014-09-01T13:17:43.204Z,18.88
2014-09-01T13:18:48.176Z,18.84
2014-09-01T13:19:52.865Z,18.84
2014-09-01T13:20:57.852Z,18.86
2014-09-01T13:22:02.838Z,18.92
2014-09-01T13:23:07.513Z,18.79
2014-09-01T13:24:12.202Z,18.76
2014-09-01T13:25:16.875Z,18.71
2014-09-01T13:26:21.863Z,18.82
2014-09-01T13:27:26.551Z,18.87
2014-09-01T13:28:31.225Z,18.9
2014-09-01T13:29:36.213Z,18.92
2014-09-01T13:30:41.199Z,18.84
2014-09-01T13:31:46.170Z,18.96
2014-09-01T13:32:51.156Z,18.89
2014-09-01T13:33:55.846Z,18.77
2014-09-01T13:35:00.536Z,18.78
2014-09-01T13:36:05.225Z,18.73
2014-09-01T13:37:09.898Z,18.88
2014-09-01T13:38:14.589Z,18.78
2014-09-01T13:39:19.574Z,18.72
2014-09-01T13:40:24.248Z,18.65
2014-09-01T13:41:28.939Z,18.75
2014-09-01T13:42:33.613Z,18.76
2014-09-01T13:43:38.302Z,18.54
2014-09-01T13:44:43.288Z,18.78
2014-09-01T13:45:47.994Z,18.86
2014-09-01T13:46:52.667Z,18.83
2014-09-01T13:47:57.357Z,18.92
2014-09-01T13:49:02.343Z,19.05
2014-09-01T13:50:07.017Z,19.13
2014-09-01T13:51:11.707Z,19.08
2014-09-01T13:52:16.381Z,19.12
2014-09-01T13:53:21.071Z,19
2014-09-01T13:54:26.057Z,18.95
2014-09-01T13:55:30.730Z,19.04
2014-09-01T13:56:35.421Z,19.02
2014-09-01T13:57:40.406Z,19.03